Pagrindinis puslapis
METAR-TAF:

METAR-TAF

Oro uostai :

Londonas Southend, Anglija

platuma: 51-34N, ilguma: 000-42E, Aukštis: 15 m

Dabartinis oras

Ataskaita buvo paskelbta 2 valandos ir 44 minutes, ne 16:50 UTC
Vėjas 7 kt iš Šiaurės Vakarų
Temperatūra 2°C
Drėgmė 80%
Slėgis 995 hPa
Matomumas 10 km arba daugiau
Mažai debesys ne aukštis 3200 ft

METAR: EGMC 231650Z 31007KT 9999 FEW032 02/M01 Q0995

Laikas: 19:34 (19:34 UTC)

Prognozė

Ataskaita buvo paskelbta 5 valandos ir 11 minutes, ne 14:23 UTC
Prognozė galioja nuo 23 metu 15 UTC su 23 metu 18 UTC
Vėjas 5 kt iš Vakarų
Matomumas 10 km arba daugiau
Išsisklaidę debesys ne aukštis 2000 ft
Tikimybė 30% :
Laikinai
nuo 23 metu 15 UTC su 23 metu 18 UTC
Matomumas: 5000 m
Su prošvaistėmis ne aukštis 500 ft
lietus, sniegas

TAF: EGMC 231423Z 2315/2318 27005KT 9999 SCT020 PROB30 TEMPO 2315/2318 5000 -SHRASN BKN005

Orai ataskaitas ir orų prognozės (METAR, TAF).

turimą stotys yra geltonos ir raudonos taškus žemėlapyje.

Perkelti pele per norėdami pamatyti stoties vardą.

Tada spustelėkite, norėdami matyti oro stebėjimo ir prognozės.

Norėdami pakeisti žemėlapį: spustelėkite ant žalios mygtukų su juodo kryžiaus žemyn,; žalią mygtuką su brūkšneliu, jei norite nutolinti; arba žalių rodyklių gretimoms žemėlapius.


METAR-TAF: